Time;durP1;ratioP1;P1;durP2;ratioP2;P2;SDS_P1;SDS_P2;PMS_P1;PMS_P2;Temp;Humidity;BMP_temperature;BMP_pressure;BME280_temperature;BME280_humidity;BME280_pressure;Samples;Min_cycle;Max_cycle;Signal;HPM_P1;HPM_P2
2023/05/30 00:02:06;;;;;;;;;;;11.20;99.90;;;;;;4996504;28;20011;-86
2023/05/30 00:04:32;;;;;;;;;;;11.20;99.90;;;;;;5052200;28;19931;-85
2023/05/30 00:06:57;;;;;;;;;;;11.10;99.90;;;;;;5029930;28;20288;-86
2023/05/30 00:09:23;;;;;;;;;;;11.20;99.90;;;;;;5035587;28;20008;-86
2023/05/30 00:11:49;;;;;;;;;;;11.10;99.90;;;;;;5044532;28;19971;-85
2023/05/30 00:14:20;;;;;;;;;;;11.20;99.90;;;;;;5024020;28;20401;-87
2023/05/30 00:16:46;;;;;;;;;;;11.20;99.90;;;;;;5035864;28;19929;-85
2023/05/30 00:19:11;;;;;;;;;;;11.20;99.90;;;;;;5021574;28;20271;-87
2023/05/30 00:21:37;;;;;;;;;;;11.10;99.90;;;;;;5003792;28;19931;-85
2023/05/30 00:24:04;;;;;;;;;;;11.00;99.90;;;;;;5007154;28;19925;-86
2023/05/30 00:26:30;;;;;;;;;;;11.10;99.90;;;;;;5019363;28;19975;-86
2023/05/30 00:28:55;;;;;;;;;;;11.10;99.90;;;;;;5013111;28;20306;-87
2023/05/30 00:31:21;;;;;;;;;;;11.10;99.90;;;;;;5017993;28;19925;-86
2023/05/30 00:33:46;;;;;;;;;;;11.20;99.90;;;;;;5022338;28;19932;-87
2023/05/30 00:36:12;;;;;;;;;;;11.10;99.90;;;;;;5016962;28;19944;-87
2023/05/30 00:38:39;;;;;;;;;;;11.10;99.90;;;;;;5018994;28;20027;-86
2023/05/30 00:41:04;;;;;;;;;;;11.00;99.90;;;;;;5035367;28;19924;-86
2023/05/30 00:43:30;;;;;;;;;;;11.10;99.90;;;;;;5042551;28;19940;-86
2023/05/30 00:45:56;;;;;;;;;;;11.10;99.90;;;;;;5026903;28;20342;-85
2023/05/30 00:48:22;;;;;;;;;;;11.20;99.90;;;;;;5034707;28;20366;-88
2023/05/30 00:50:48;;;;;;;;;;;11.10;99.90;;;;;;5021900;28;19932;-85
2023/05/30 00:53:14;;;;;;;;;;;11.00;99.90;;;;;;5037211;28;20387;-85
2023/05/30 00:55:40;;;;;;;;;;;11.00;99.90;;;;;;5018983;28;19978;-85
2023/05/30 00:58:06;;;;;;;;;;;10.90;99.90;;;;;;5034842;28;20023;-86
2023/05/30 01:00:37;;;;;;;;;;;11.00;99.90;;;;;;5006632;28;20375;-86
2023/05/30 01:03:03;;;;;;;;;;;11.80;99.90;;;;;;5035150;28;19925;-87
2023/05/30 01:05:28;;;;;;;;;;;11.00;99.90;;;;;;5018040;28;20263;-86
2023/05/30 01:07:54;;;;;;;;;;;11.00;99.90;;;;;;5035118;28;19925;-86
2023/05/30 01:10:20;;;;;;;;;;;11.00;99.90;;;;;;5051437;28;19931;-86
2023/05/30 01:12:52;;;;;;;;;;;11.00;99.90;;;;;;5034423;28;20007;-86
2023/05/30 01:15:41;;;;;;;;;;;10.90;99.90;;;;;;5015389;28;19955;-86
2023/05/30 01:18:06;;;;;;;;;;;10.90;99.90;;;;;;5007228;28;20028;-86
2023/05/30 01:20:41;;;;;;;;;;;10.90;99.90;;;;;;5029002;28;19925;-87
2023/05/30 01:23:24;;;;;;;;;;;10.90;99.90;;;;;;5034611;28;19935;-85
2023/05/30 01:25:58;;;;;;;;;;;10.90;99.90;;;;;;5030843;28;19924;-87
2023/05/30 01:28:24;;;;;;;;;;;10.90;99.90;;;;;;5030397;28;19925;-87
2023/05/30 01:30:52;;;;;;;;;;;10.80;99.90;;;;;;5022366;28;19925;-87
2023/05/30 01:33:19;;;;;;;;;;;10.80;99.90;;;;;;5033570;28;19929;-86
2023/05/30 01:35:45;;;;;;;;;;;10.80;99.90;;;;;;5035075;28;19943;-86
2023/05/30 01:38:11;;;;;;;;;;;10.80;99.90;;;;;;5035229;28;19925;-86
2023/05/30 01:40:37;;;;;;;;;;;10.90;99.90;;;;;;5026380;28;19972;-87
2023/05/30 01:43:18;;;;;;;;;;;10.80;99.90;;;;;;5007170;28;19925;-87
2023/05/30 01:45:50;;;;;;;;;;;10.80;99.90;;;;;;5025033;28;20268;-86
2023/05/30 01:48:27;;;;;;;;;;;10.90;99.90;;;;;;5034514;28;20385;-88
2023/05/30 01:50:55;;;;;;;;;;;10.90;99.90;;;;;;5045921;28;19933;-85
2023/05/30 01:53:31;;;;;;;;;;;10.90;99.90;;;;;;5021305;28;19924;-86
2023/05/30 01:55:58;;;;;;;;;;;10.90;99.90;;;;;;5030431;28;19935;-88
2023/05/30 01:58:24;;;;;;;;;;;10.80;99.90;;;;;;5037964;28;19932;-87
2023/05/30 02:00:50;;;;;;;;;;;10.80;99.90;;;;;;5038378;28;19939;-86
2023/05/30 02:03:16;;;;;;;;;;;10.80;99.90;;;;;;5026714;28;19937;-87
2023/05/30 02:05:42;;;;;;;;;;;10.80;99.90;;;;;;5037805;28;19952;-87
2023/05/30 02:08:07;;;;;;;;;;;10.80;99.90;;;;;;5038278;28;19925;-86
2023/05/30 02:10:33;;;;;;;;;;;10.90;99.90;;;;;;5021447;28;19925;-87
2023/05/30 02:12:59;;;;;;;;;;;10.80;99.90;;;;;;5037892;28;19929;-86
2023/05/30 02:15:24;;;;;;;;;;;10.90;99.90;;;;;;5038262;28;20285;-86
2023/05/30 02:17:50;;;;;;;;;;;10.80;99.90;;;;;;5021666;28;19925;-85
2023/05/30 02:20:15;;;;;;;;;;;10.90;99.90;;;;;;5034583;28;20425;-86
2023/05/30 02:22:41;;;;;;;;;;;10.90;99.90;;;;;;4988298;28;20016;-86
2023/05/30 02:25:09;;;;;;;;;;;10.90;99.90;;;;;;5021254;28;19932;-86
2023/05/30 02:27:35;;;;;;;;;;;10.90;99.90;;;;;;5038126;28;19929;-86
2023/05/30 02:30:00;;;;;;;;;;;10.90;99.90;;;;;;5017869;28;19932;-86
2023/05/30 02:32:26;;;;;;;;;;;10.90;99.90;;;;;;5017889;28;19936;-86
2023/05/30 02:34:51;;;;;;;;;;;10.60;99.90;;;;;;5017143;28;20040;-86
2023/05/30 02:37:17;;;;;;;;;;;10.90;99.90;;;;;;5025256;28;19951;-86
2023/05/30 02:39:43;;;;;;;;;;;10.90;99.90;;;;;;5021214;28;19925;-86
2023/05/30 02:42:08;;;;;;;;;;;10.90;99.90;;;;;;5018974;28;19925;-86
2023/05/30 02:44:34;;;;;;;;;;;10.90;99.90;;;;;;5013527;28;20008;-85
2023/05/30 02:47:00;;;;;;;;;;;10.80;99.90;;;;;;5034390;28;19925;-86
2023/05/30 02:49:27;;;;;;;;;;;10.80;99.90;;;;;;5037135;28;19925;-86
2023/05/30 02:51:52;;;;;;;;;;;10.80;99.90;;;;;;5020770;28;19960;-86
2023/05/30 02:54:18;;;;;;;;;;;10.80;99.90;;;;;;5037338;28;20029;-86
2023/05/30 02:56:44;;;;;;;;;;;10.90;99.90;;;;;;5010074;28;19948;-87
2023/05/30 02:59:09;;;;;;;;;;;10.80;99.90;;;;;;5020358;28;20421;-86
2023/05/30 03:01:35;;;;;;;;;;;10.80;99.90;;;;;;5019912;28;20019;-86
2023/05/30 03:04:00;;;;;;;;;;;12.00;99.90;;;;;;5017485;28;19925;-86
2023/05/30 03:06:27;;;;;;;;;;;10.80;99.90;;;;;;5028165;28;19929;-86
2023/05/30 03:08:57;;;;;;;;;;;9.40;99.90;;;;;;5035757;28;19924;-85
2023/05/30 03:11:23;;;;;;;;;;;10.80;99.90;;;;;;5026850;28;19925;-86
2023/05/30 03:13:50;;;;;;;;;;;10.80;99.90;;;;;;5036401;28;19932;-87
2023/05/30 03:16:16;;;;;;;;;;;10.70;99.90;;;;;;5003596;28;19932;-86
2023/05/30 03:18:41;;;;;;;;;;;10.70;99.90;;;;;;5035846;28;19936;-86
2023/05/30 03:21:08;;;;;;;;;;;10.70;99.90;;;;;;5035279;28;19932;-86
2023/05/30 03:23:33;;;;;;;;;;;10.60;99.90;;;;;;5036734;28;19925;-86
2023/05/30 03:25:59;;;;;;;;;;;10.60;99.90;;;;;;5036682;28;19936;-86
2023/05/30 03:28:25;;;;;;;;;;;10.60;99.90;;;;;;5019953;28;19925;-87
2023/05/30 03:30:51;;;;;;;;;;;10.60;99.90;;;;;;5013617;28;19925;-86
2023/05/30 03:33:17;;;;;;;;;;;10.60;99.90;;;;;;5031767;28;19940;-88
2023/05/30 03:35:43;;;;;;;;;;;10.70;99.90;;;;;;5020050;28;19925;-86
2023/05/30 03:38:08;;;;;;;;;;;10.70;99.90;;;;;;5020323;28;19935;-87
2023/05/30 03:40:34;;;;;;;;;;;10.70;99.90;;;;;;5036488;28;20397;-86
2023/05/30 03:43:00;;;;;;;;;;;10.70;99.90;;;;;;5010007;28;20024;-87
2023/05/30 03:45:25;;;;;;;;;;;10.70;99.90;;;;;;4998376;28;19924;-86
2023/05/30 03:47:51;;;;;;;;;;;10.70;99.90;;;;;;5035969;28;20019;-86
2023/05/30 03:50:17;;;;;;;;;;;10.80;99.90;;;;;;5003249;28;19935;-86
2023/05/30 03:52:42;;;;;;;;;;;10.80;99.90;;;;;;5036248;28;19949;-86
2023/05/30 03:55:08;;;;;;;;;;;10.80;99.90;;;;;;5036228;28;20394;-86
2023/05/30 03:57:34;;;;;;;;;;;10.80;99.90;;;;;;5019962;28;20019;-86
2023/05/30 03:59:59;;;;;;;;;;;10.80;99.90;;;;;;5035270;28;20247;-86
2023/05/30 04:02:25;;;;;;;;;;;10.80;99.90;;;;;;5036145;28;19924;-86
2023/05/30 04:04:52;;;;;;;;;;;10.90;99.90;;;;;;5010394;28;19925;-86
2023/05/30 04:07:18;;;;;;;;;;;10.90;99.90;;;;;;5035920;28;20016;-87
2023/05/30 04:09:44;;;;;;;;;;;10.90;99.90;;;;;;5036002;28;19983;-86
2023/05/30 04:12:10;;;;;;;;;;;10.90;99.90;;;;;;5011955;28;19943;-86
2023/05/30 04:14:35;;;;;;;;;;;10.90;99.90;;;;;;5018800;28;19956;-86
2023/05/30 04:17:01;;;;;;;;;;;11.00;99.90;;;;;;5020058;28;19979;-87
2023/05/30 04:19:26;;;;;;;;;;;11.00;99.90;;;;;;5035541;28;19947;-86
2023/05/30 04:21:52;;;;;;;;;;;11.00;99.90;;;;;;5016031;28;19991;-86
2023/05/30 04:24:18;;;;;;;;;;;11.00;99.90;;;;;;5035672;28;19925;-86
2023/05/30 04:26:48;;;;;;;;;;;11.00;99.90;;;;;;5035699;28;19929;-86
2023/05/30 04:29:14;;;;;;;;;;;11.00;99.90;;;;;;5017606;28;19931;-86
2023/05/30 04:31:39;;;;;;;;;;;11.00;99.90;;;;;;5015610;28;20290;-86
2023/05/30 04:34:05;;;;;;;;;;;11.00;99.90;;;;;;5000265;28;20384;-86
2023/05/30 04:36:32;;;;;;;;;;;11.10;99.90;;;;;;5019428;28;19925;-86
2023/05/30 04:38:58;;;;;;;;;;;11.10;99.90;;;;;;5019184;28;20367;-85
2023/05/30 04:41:25;;;;;;;;;;;11.10;99.90;;;;;;5024964;28;19972;-85
2023/05/30 04:43:57;;;;;;;;;;;11.10;99.90;;;;;;4999416;28;19932;-85
2023/05/30 04:46:27;;;;;;;;;;;11.10;99.90;;;;;;5019456;28;19925;-85
2023/05/30 04:48:55;;;;;;;;;;;10.30;99.90;;;;;;5034366;28;20298;-86
2023/05/30 04:51:21;;;;;;;;;;;11.20;99.90;;;;;;5035561;28;19925;-85
2023/05/30 04:53:47;;;;;;;;;;;11.20;99.90;;;;;;5035017;28;19982;-85
2023/05/30 04:56:12;;;;;;;;;;;11.30;99.90;;;;;;5002564;28;19924;-85
2023/05/30 04:58:43;;;;;;;;;;;11.30;99.90;;;;;;5017036;28;20059;-85
2023/05/30 05:01:10;;;;;;;;;;;11.20;99.90;;;;;;5035555;28;20320;-84
2023/05/30 05:03:38;;;;;;;;;;;11.40;99.90;;;;;;5034753;28;19936;-85
2023/05/30 05:06:06;;;;;;;;;;;11.30;99.90;;;;;;5026358;28;19933;-86
2023/05/30 05:08:33;;;;;;;;;;;11.30;99.90;;;;;;5035477;28;20382;-85
2023/05/30 05:11:00;;;;;;;;;;;11.30;99.90;;;;;;5036929;28;20012;-85
2023/05/30 05:13:25;;;;;;;;;;;11.30;99.90;;;;;;5035378;28;19924;-85
2023/05/30 05:15:51;;;;;;;;;;;11.30;99.90;;;;;;5035139;28;20045;-84
2023/05/30 05:18:17;;;;;;;;;;;11.40;99.90;;;;;;5019214;28;19979;-86
2023/05/30 05:20:44;;;;;;;;;;;11.40;99.90;;;;;;5032294;28;19926;-84
2023/05/30 05:23:09;;;;;;;;;;;11.30;99.90;;;;;;5019665;28;19925;-85
2023/05/30 05:25:35;;;;;;;;;;;11.30;99.90;;;;;;5036212;28;19947;-85
2023/05/30 05:28:00;;;;;;;;;;;11.30;99.90;;;;;;5038114;28;19952;-86
2023/05/30 05:30:26;;;;;;;;;;;11.40;99.90;;;;;;5038812;28;20286;-85
2023/05/30 05:32:52;;;;;;;;;;;11.40;99.90;;;;;;5039131;28;19963;-85
2023/05/30 05:35:18;;;;;;;;;;;11.40;99.90;;;;;;5022214;28;19939;-86
2023/05/30 05:37:43;;;;;;;;;;;11.40;99.90;;;;;;5038503;28;19929;-86
2023/05/30 05:40:10;;;;;;;;;;;11.30;99.90;;;;;;5038826;28;19936;-85
2023/05/30 05:42:36;;;;;;;;;;;11.30;99.90;;;;;;5055288;28;19931;-86
2023/05/30 05:45:02;;;;;;;;;;;11.20;99.90;;;;;;5038645;28;19925;-85
2023/05/30 05:47:27;;;;;;;;;;;11.30;99.90;;;;;;5038861;28;19936;-86
2023/05/30 05:49:53;;;;;;;;;;;11.30;99.90;;;;;;5021923;28;19925;-86
2023/05/30 05:52:19;;;;;;;;;;;11.30;99.90;;;;;;5034538;28;19968;-86
2023/05/30 05:54:45;;;;;;;;;;;11.30;99.90;;;;;;5035193;28;19929;-86
2023/05/30 05:57:10;;;;;;;;;;;11.30;99.90;;;;;;5018284;28;19925;-87
2023/05/30 05:59:36;;;;;;;;;;;11.30;99.90;;;;;;5024057;28;20398;-87
2023/05/30 06:02:02;;;;;;;;;;;11.40;99.90;;;;;;5021483;28;19968;-87
2023/05/30 06:04:27;;;;;;;;;;;11.40;99.90;;;;;;5037106;28;19960;-87
2023/05/30 06:06:53;;;;;;;;;;;11.40;99.90;;;;;;5030556;28;19979;-86
2023/05/30 06:09:18;;;;;;;;;;;11.30;99.90;;;;;;5019971;28;19925;-87
2023/05/30 06:11:44;;;;;;;;;;;11.40;99.90;;;;;;5018944;28;19955;-86
2023/05/30 06:14:10;;;;;;;;;;;11.40;99.90;;;;;;5036119;28;19932;-87
2023/05/30 06:16:35;;;;;;;;;;;11.40;99.90;;;;;;5030161;28;19925;-87
2023/05/30 06:19:01;;;;;;;;;;;11.40;99.90;;;;;;5036071;28;19928;-86
2023/05/30 06:21:26;;;;;;;;;;;11.40;99.90;;;;;;5020540;28;19987;-87
2023/05/30 06:23:54;;;;;;;;;;;11.40;99.90;;;;;;5012416;28;19932;-87
2023/05/30 06:26:20;;;;;;;;;;;11.40;99.90;;;;;;5008884;28;19972;-87
2023/05/30 06:28:52;;;;;;;;;;;11.40;99.90;;;;;;5020884;28;19972;-87
2023/05/30 06:31:17;;;;;;;;;;;11.40;99.90;;;;;;5027822;28;19931;-88
2023/05/30 06:33:43;;;;;;;;;;;11.40;99.90;;;;;;5025504;28;20150;-88
2023/05/30 06:36:10;;;;;;;;;;;10.40;99.90;;;;;;5019511;28;19932;-87
2023/05/30 06:38:41;;;;;;;;;;;11.50;99.90;;;;;;5020890;28;19982;-87
2023/05/30 06:41:09;;;;;;;;;;;11.50;99.90;;;;;;5036791;28;20039;-87
2023/05/30 06:43:39;;;;;;;;;;;11.50;99.90;;;;;;5016109;28;19937;-87
2023/05/30 06:46:05;;;;;;;;;;;11.80;99.90;;;;;;4997515;28;19960;-87
2023/05/30 06:48:31;;;;;;;;;;;10.00;99.90;;;;;;5020164;28;19968;-88
2023/05/30 06:50:56;;;;;;;;;;;11.90;99.90;;;;;;5034120;28;19967;-87
2023/05/30 06:53:25;;;;;;;;;;;11.70;99.90;;;;;;5037014;28;20022;-88
2023/05/30 06:55:53;;;;;;;;;;;11.70;99.90;;;;;;5035107;28;19968;-87
2023/05/30 06:58:19;;;;;;;;;;;10.60;99.90;;;;;;5024393;28;19972;-87
2023/05/30 07:00:47;;;;;;;;;;;11.70;99.90;;;;;;5059503;28;20297;-87
2023/05/30 07:03:13;;;;;;;;;;;12.00;99.90;;;;;;5027314;28;19947;-87
2023/05/30 07:05:38;;;;;;;;;;;11.80;99.90;;;;;;5020894;28;19944;-86
2023/05/30 07:08:06;;;;;;;;;;;12.20;99.90;;;;;;5038850;28;19924;-87
2023/05/30 07:10:34;;;;;;;;;;;12.00;99.90;;;;;;5036811;28;19924;-86
2023/05/30 07:13:02;;;;;;;;;;;12.10;99.90;;;;;;5033543;28;20010;-86
2023/05/30 07:15:31;;;;;;;;;;;13.10;99.90;;;;;;5019897;28;20278;-86
2023/05/30 07:17:57;;;;;;;;;;;11.90;99.90;;;;;;5016961;28;19928;-88
2023/05/30 07:20:23;;;;;;;;;;;11.80;99.90;;;;;;5030520;28;19933;-86
2023/05/30 07:22:51;;;;;;;;;;;11.80;99.90;;;;;;5011711;28;19952;-91
2023/05/30 07:25:17;;;;;;;;;;;11.80;99.90;;;;;;5013824;28;19975;-87
2023/05/30 07:27:48;;;;;;;;;;;12.00;99.90;;;;;;5017492;28;20404;-87
2023/05/30 07:30:14;;;;;;;;;;;12.00;99.90;;;;;;5007883;28;19925;-87
2023/05/30 07:32:39;;;;;;;;;;;12.40;99.90;;;;;;5014954;28;19975;-87
2023/05/30 07:35:05;;;;;;;;;;;12.30;99.90;;;;;;5035794;28;19925;-88
2023/05/30 07:37:31;;;;;;;;;;;12.10;99.90;;;;;;5038706;28;20036;-87
2023/05/30 07:39:57;;;;;;;;;;;12.20;99.90;;;;;;5004423;28;19929;-87
2023/05/30 07:42:22;;;;;;;;;;;11.90;99.90;;;;;;5028344;28;20302;-87
2023/05/30 07:44:51;;;;;;;;;;;11.90;99.90;;;;;;5035103;28;19925;-88
2023/05/30 07:47:19;;;;;;;;;;;12.00;99.90;;;;;;5019144;28;19929;-86
2023/05/30 07:49:47;;;;;;;;;;;12.30;99.90;;;;;;5035170;28;20374;-87
2023/05/30 07:52:16;;;;;;;;;;;11.90;99.90;;;;;;5029237;28;20098;-87
2023/05/30 07:54:42;;;;;;;;;;;12.10;99.90;;;;;;5022940;28;19932;-88
2023/05/30 07:57:17;;;;;;;;;;;;;;;;;;;;;
2023/05/30 07:59:43;;;;;;;;;;;12.00;99.90;;;;;;5034856;28;19928;-87
2023/05/30 08:02:11;;;;;;;;;;;12.20;99.90;;;;;;5035596;28;20007;-87
2023/05/30 08:04:37;;;;;;;;;;;12.20;99.90;;;;;;5002703;28;19929;-87
2023/05/30 08:07:03;;;;;;;;;;;12.30;99.90;;;;;;5015532;28;20236;-86
2023/05/30 08:09:30;;;;;;;;;;;12.40;99.90;;;;;;5032344;28;19925;-87
2023/05/30 08:11:57;;;;;;;;;;;12.50;99.90;;;;;;5022321;28;20338;-86
2023/05/30 08:14:23;;;;;;;;;;;12.70;99.90;;;;;;5009599;28;19925;-86
2023/05/30 08:16:48;;;;;;;;;;;13.00;99.90;;;;;;5026561;28;20016;-88
2023/05/30 08:19:15;;;;;;;;;;;12.90;99.90;;;;;;5015553;28;19925;-87
2023/05/30 08:21:44;;;;;;;;;;;12.90;99.90;;;;;;5024194;28;19936;-88
2023/05/30 08:24:16;;;;;;;;;;;13.30;99.90;;;;;;5019360;28;20008;-88
2023/05/30 08:26:48;;;;;;;;;;;13.30;99.90;;;;;;5025301;28;19983;-87
2023/05/30 08:29:14;;;;;;;;;;;13.20;99.90;;;;;;5018801;28;19925;-87
2023/05/30 08:31:42;;;;;;;;;;;13.00;99.90;;;;;;5035329;28;19932;-87
2023/05/30 08:34:07;;;;;;;;;;;13.30;99.90;;;;;;5034256;28;19929;-87
2023/05/30 08:36:35;;;;;;;;;;;13.00;99.90;;;;;;5034759;28;19929;-86
2023/05/30 08:39:01;;;;;;;;;;;13.00;99.90;;;;;;5027571;28;20379;-86
2023/05/30 08:41:29;;;;;;;;;;;13.00;99.90;;;;;;5029251;28;19925;-86
2023/05/30 08:43:55;;;;;;;;;;;13.20;99.90;;;;;;5031912;28;19925;-87
2023/05/30 08:46:21;;;;;;;;;;;13.00;99.90;;;;;;5023205;28;19925;-86
2023/05/30 08:48:47;;;;;;;;;;;13.10;99.90;;;;;;5026341;28;19972;-86
2023/05/30 08:51:15;;;;;;;;;;;12.60;99.90;;;;;;5017989;28;19925;-86
2023/05/30 08:53:48;;;;;;;;;;;13.50;99.90;;;;;;5034100;28;20303;-87
2023/05/30 08:56:27;;;;;;;;;;;13.60;99.90;;;;;;5035183;28;19974;-86
2023/05/30 08:58:57;;;;;;;;;;;14.00;99.90;;;;;;5032523;28;19931;-87
2023/05/30 09:01:23;;;;;;;;;;;14.20;99.90;;;;;;5020616;28;19925;-86
2023/05/30 09:03:51;;;;;;;;;;;15.40;99.90;;;;;;5018419;28;19948;-87
2023/05/30 09:06:20;;;;;;;;;;;14.10;99.90;;;;;;5035026;28;19929;-87
2023/05/30 09:08:54;;;;;;;;;;;14.20;99.90;;;;;;5033892;28;19979;-87
2023/05/30 09:11:21;;;;;;;;;;;15.90;99.90;;;;;;5035556;28;19925;-86
2023/05/30 09:13:50;;;;;;;;;;;13.80;99.90;;;;;;5032342;28;19933;-87
2023/05/30 09:16:16;;;;;;;;;;;13.70;99.90;;;;;;5038873;28;20344;-87
2023/05/30 09:18:44;;;;;;;;;;;14.60;99.90;;;;;;5022292;28;19928;-87
2023/05/30 09:21:10;;;;;;;;;;;13.60;99.90;;;;;;5022444;28;19971;-87
2023/05/30 09:23:36;;;;;;;;;;;13.80;99.90;;;;;;5040364;28;19980;-87
2023/05/30 09:26:04;;;;;;;;;;;14.00;99.90;;;;;;5067042;28;19925;-86
2023/05/30 09:28:32;;;;;;;;;;;13.80;99.90;;;;;;5039650;28;19936;-88
2023/05/30 09:30:59;;;;;;;;;;;14.10;99.90;;;;;;5044244;28;20144;-87
2023/05/30 09:33:39;;;;;;;;;;;14.20;99.90;;;;;;5022951;28;20023;-89
2023/05/30 09:36:07;;;;;;;;;;;14.50;99.90;;;;;;5024622;28;20375;-89
2023/05/30 09:38:32;;;;;;;;;;;14.50;99.90;;;;;;5026512;28;19924;-89
2023/05/30 09:41:02;;;;;;;;;;;14.60;99.90;;;;;;5031210;28;19932;-85
2023/05/30 09:43:34;;;;;;;;;;;14.50;99.90;;;;;;5033694;28;19986;-88
2023/05/30 09:46:01;;;;;;;;;;;14.50;99.90;;;;;;5013068;28;20359;-87
2023/05/30 09:48:29;;;;;;;;;;;14.40;99.90;;;;;;5018402;28;20034;-84
2023/05/30 09:51:00;;;;;;;;;;;14.30;99.90;;;;;;5038186;28;20378;-87
2023/05/30 09:53:30;;;;;;;;;;;14.20;99.90;;;;;;5031101;28;20000;-86
2023/05/30 09:55:56;;;;;;;;;;;14.10;99.90;;;;;;5004840;28;20482;-87
2023/05/30 09:58:22;;;;;;;;;;;14.10;99.90;;;;;;5035662;28;19931;-87
2023/05/30 10:00:52;;;;;;;;;;;14.00;99.90;;;;;;5037988;28;20383;-87
2023/05/30 10:03:20;;;;;;;;;;;14.00;99.90;;;;;;5023704;28;19936;-86
2023/05/30 10:05:50;;;;;;;;;;;14.00;99.90;;;;;;5034508;28;19999;-86
2023/05/30 10:08:16;;;;;;;;;;;13.80;99.90;;;;;;5033437;28;19929;-88
2023/05/30 10:10:42;;;;;;;;;;;13.60;99.90;;;;;;5048944;28;19982;-86
2023/05/30 10:13:10;;;;;;;;;;;13.50;99.90;;;;;;5037236;28;19925;-87
2023/05/30 10:15:39;;;;;;;;;;;13.70;99.90;;;;;;5040244;28;19951;-87
2023/05/30 10:18:08;;;;;;;;;;;13.40;99.90;;;;;;5034664;28;19924;-86
2023/05/30 10:20:38;;;;;;;;;;;13.50;99.90;;;;;;5037827;28;19929;-85
2023/05/30 10:23:07;;;;;;;;;;;13.50;99.90;;;;;;5037094;28;19925;-87
2023/05/30 10:25:36;;;;;;;;;;;13.70;99.90;;;;;;5016679;28;19925;-88
2023/05/30 10:28:03;;;;;;;;;;;13.70;99.90;;;;;;5039818;28;19924;-87
2023/05/30 10:30:32;;;;;;;;;;;13.70;99.90;;;;;;5029774;28;19940;-87
2023/05/30 10:33:07;;;;;;;;;;;13.90;99.90;;;;;;5037265;28;19967;-87
2023/05/30 10:35:33;;;;;;;;;;;14.10;99.90;;;;;;5053980;28;19975;-86
2023/05/30 10:37:59;;;;;;;;;;;13.30;99.90;;;;;;5034422;28;19929;-88
2023/05/30 10:40:32;;;;;;;;;;;13.80;99.90;;;;;;5052812;28;19971;-86
2023/05/30 10:43:07;;;;;;;;;;;13.80;99.90;;;;;;5018112;28;19925;-86
2023/05/30 10:45:32;;;;;;;;;;;13.70;99.90;;;;;;5034891;28;19931;-86
2023/05/30 10:48:10;;;;;;;;;;;13.80;99.90;;;;;;5037142;28;20007;-87
2023/05/30 10:50:41;;;;;;;;;;;13.80;99.90;;;;;;5037246;28;19924;-86
2023/05/30 10:53:17;;;;;;;;;;;13.80;99.90;;;;;;5020483;28;19964;-86
2023/05/30 10:55:45;;;;;;;;;;;13.80;99.90;;;;;;5053870;28;19968;-87
2023/05/30 10:58:30;;;;;;;;;;;13.80;99.90;;;;;;5035925;28;19939;-86
2023/05/30 11:01:15;;;;;;;;;;;13.90;99.90;;;;;;5035578;28;19929;-85
2023/05/30 11:03:44;;;;;;;;;;;14.10;99.90;;;;;;5019912;28;19979;-86
2023/05/30 11:06:10;;;;;;;;;;;14.20;99.90;;;;;;5036810;28;19983;-86
2023/05/30 11:08:38;;;;;;;;;;;14.30;99.90;;;;;;5042399;28;19968;-86
2023/05/30 11:11:15;;;;;;;;;;;14.30;99.90;;;;;;5020803;28;19972;-86
2023/05/30 11:13:43;;;;;;;;;;;14.30;99.90;;;;;;5036727;28;20428;-86
2023/05/30 11:16:22;;;;;;;;;;;14.40;99.90;;;;;;5037392;28;20008;-87
2023/05/30 11:18:51;;;;;;;;;;;14.50;99.90;;;;;;5036748;28;19925;-87
2023/05/30 11:21:36;;;;;;;;;;;14.60;99.90;;;;;;5037442;28;20294;-87
2023/05/30 11:24:04;;;;;;;;;;;14.70;99.90;;;;;;5035922;28;19947;-87
2023/05/30 11:26:49;;;;;;;;;;;14.80;99.90;;;;;;5033528;28;19961;-85
2023/05/30 11:29:36;;;;;;;;;;;14.90;99.90;;;;;;5017622;28;20016;-86
2023/05/30 11:32:04;;;;;;;;;;;14.90;99.90;;;;;;5019729;28;19955;-87
2023/05/30 11:34:29;;;;;;;;;;;14.90;99.90;;;;;;5029083;28;19948;-87
2023/05/30 11:36:58;;;;;;;;;;;15.00;99.90;;;;;;5028246;28;19925;-86
2023/05/30 11:39:23;;;;;;;;;;;15.10;99.90;;;;;;5017860;28;20007;-86
2023/05/30 11:41:51;;;;;;;;;;;15.10;99.90;;;;;;5018336;28;19968;-86
2023/05/30 11:44:17;;;;;;;;;;;15.20;99.90;;;;;;5036513;28;19928;-86
2023/05/30 11:46:42;;;;;;;;;;;15.10;99.90;;;;;;5033733;28;20260;-87
2023/05/30 11:49:08;;;;;;;;;;;15.10;99.90;;;;;;5011747;28;19932;-86
2023/05/30 11:51:33;;;;;;;;;;;15.10;99.90;;;;;;5013690;28;19925;-87
2023/05/30 11:53:59;;;;;;;;;;;15.10;99.90;;;;;;5015966;28;19932;-86
2023/05/30 11:56:29;;;;;;;;;;;15.10;99.90;;;;;;5019092;28;19935;-86
2023/05/30 11:58:55;;;;;;;;;;;15.10;99.90;;;;;;5019343;28;20338;-87
2023/05/30 12:01:21;;;;;;;;;;;15.10;99.90;;;;;;5036662;28;19982;-86
2023/05/30 12:03:47;;;;;;;;;;;15.10;99.90;;;;;;5016875;28;19952;-86
2023/05/30 12:06:13;;;;;;;;;;;15.00;99.90;;;;;;5033632;28;19994;-86
2023/05/30 12:08:39;;;;;;;;;;;15.10;99.90;;;;;;5036212;28;20015;-86
2023/05/30 12:11:05;;;;;;;;;;;15.20;99.90;;;;;;5036067;28;19924;-86
2023/05/30 12:13:36;;;;;;;;;;;15.40;99.90;;;;;;5053079;28;20008;-87
2023/05/30 12:16:02;;;;;;;;;;;15.50;99.90;;;;;;5019406;28;19932;-87
2023/05/30 12:18:27;;;;;;;;;;;15.50;99.90;;;;;;5035639;28;19979;-86
2023/05/30 12:20:53;;;;;;;;;;;15.50;99.90;;;;;;5035949;28;20371;-86
2023/05/30 12:23:25;;;;;;;;;;;15.40;99.90;;;;;;5036054;28;19929;-87
2023/05/30 12:25:54;;;;;;;;;;;15.40;99.90;;;;;;5019362;28;20310;-86
2023/05/30 12:28:20;;;;;;;;;;;15.30;99.90;;;;;;5035507;28;19974;-87
2023/05/30 12:30:46;;;;;;;;;;;15.30;99.90;;;;;;5035856;28;19933;-84
2023/05/30 12:33:12;;;;;;;;;;;15.30;99.90;;;;;;5034583;28;19925;-85
2023/05/30 12:35:39;;;;;;;;;;;15.30;99.90;;;;;;5034452;28;19925;-86
2023/05/30 12:38:05;;;;;;;;;;;15.10;99.90;;;;;;5015105;28;19932;-86
2023/05/30 12:40:31;;;;;;;;;;;15.20;99.90;;;;;;5021159;28;20015;-86
2023/05/30 12:42:57;;;;;;;;;;;15.40;99.90;;;;;;5015472;28;20020;-86
2023/05/30 12:45:22;;;;;;;;;;;15.60;99.90;;;;;;5005601;28;20402;-86
2023/05/30 12:47:48;;;;;;;;;;;15.80;99.90;;;;;;5013705;28;19924;-85
2023/05/30 12:50:14;;;;;;;;;;;16.10;99.90;;;;;;5022266;28;19940;-86
2023/05/30 12:52:40;;;;;;;;;;;16.30;99.90;;;;;;5031319;28;19941;-86
2023/05/30 12:55:06;;;;;;;;;;;16.40;99.90;;;;;;5012666;28;19928;-85
2023/05/30 12:57:31;;;;;;;;;;;16.40;99.90;;;;;;5034744;28;19924;-86
2023/05/30 12:59:57;;;;;;;;;;;16.40;99.90;;;;;;5018901;28;19978;-86
2023/05/30 13:02:26;;;;;;;;;;;16.40;99.90;;;;;;5025193;28;19925;-86
2023/05/30 13:04:53;;;;;;;;;;;16.40;99.90;;;;;;5018668;28;19924;-86
2023/05/30 13:07:18;;;;;;;;;;;16.30;99.90;;;;;;5018711;28;19979;-86
2023/05/30 13:09:44;;;;;;;;;;;16.20;99.90;;;;;;5035296;28;19925;-88
2023/05/30 13:12:10;;;;;;;;;;;16.10;99.90;;;;;;5025670;28;19944;-86
2023/05/30 13:14:36;;;;;;;;;;;15.90;99.90;;;;;;5018145;28;19994;-86
2023/05/30 13:17:03;;;;;;;;;;;15.80;99.90;;;;;;5016855;28;19925;-86
2023/05/30 13:19:28;;;;;;;;;;;15.70;99.90;;;;;;5030890;28;19925;-86
2023/05/30 13:21:54;;;;;;;;;;;15.70;99.90;;;;;;5036235;28;20339;-86
2023/05/30 13:24:20;;;;;;;;;;;15.70;99.90;;;;;;5025803;28;19924;-86
2023/05/30 13:26:46;;;;;;;;;;;15.70;99.90;;;;;;5035353;28;20468;-86
2023/05/30 13:29:11;;;;;;;;;;;15.70;99.90;;;;;;5016332;28;19925;-86
2023/05/30 13:31:37;;;;;;;;;;;15.80;99.90;;;;;;4999369;28;19933;-86
2023/05/30 13:34:02;;;;;;;;;;;15.80;99.90;;;;;;5015257;28;19932;-84
2023/05/30 13:36:28;;;;;;;;;;;15.90;99.90;;;;;;5029842;28;19978;-86
2023/05/30 13:38:54;;;;;;;;;;;16.00;99.90;;;;;;5035652;28;19944;-86
2023/05/30 13:41:21;;;;;;;;;;;16.10;99.90;;;;;;5035817;28;19939;-84
2023/05/30 13:43:47;;;;;;;;;;;16.10;99.90;;;;;;5006015;28;19979;-85
2023/05/30 13:46:12;;;;;;;;;;;16.10;99.90;;;;;;5018084;28;19929;-85
2023/05/30 13:48:38;;;;;;;;;;;16.10;99.90;;;;;;5020625;28;20082;-85
2023/05/30 13:51:04;;;;;;;;;;;16.00;99.90;;;;;;5037818;28;19925;-86
2023/05/30 13:53:29;;;;;;;;;;;15.90;99.90;;;;;;5022351;28;19925;-86
2023/05/30 13:55:55;;;;;;;;;;;15.90;99.90;;;;;;5023594;28;20297;-85
2023/05/30 13:58:22;;;;;;;;;;;15.80;99.90;;;;;;5044772;28;19925;-88
2023/05/30 14:00:47;;;;;;;;;;;15.80;99.90;;;;;;5027676;28;19925;-87
2023/05/30 14:03:13;;;;;;;;;;;15.70;99.90;;;;;;5012287;28;20410;-87
2023/05/30 14:05:39;;;;;;;;;;;15.60;99.90;;;;;;5018854;28;19929;-87
2023/05/30 14:08:04;;;;;;;;;;;15.60;99.90;;;;;;5030776;28;19932;-87
2023/05/30 14:10:31;;;;;;;;;;;15.50;99.90;;;;;;5036650;28;19925;-90
2023/05/30 14:12:57;;;;;;;;;;;15.60;99.90;;;;;;5018135;28;19939;-85
2023/05/30 14:15:24;;;;;;;;;;;15.60;99.90;;;;;;5025544;28;20356;-88
2023/05/30 14:17:50;;;;;;;;;;;15.60;99.90;;;;;;5016141;28;19972;-86
2023/05/30 14:20:16;;;;;;;;;;;15.40;99.90;;;;;;5016479;28;19968;-88